createdAt,value
2023-04-17T00:04:19.680Z,13.50
2023-04-17T00:14:26.419Z,14.10
2023-04-17T00:24:32.956Z,14.50
2023-04-17T00:34:41.642Z,14.90
2023-04-17T00:44:48.233Z,15.30
2023-04-17T00:54:56.696Z,15.20
2023-04-17T01:05:03.372Z,15.00
2023-04-17T01:15:10.257Z,14.50
2023-04-17T01:25:16.816Z,15.80
2023-04-17T01:35:23.623Z,14.60
2023-04-17T01:45:29.187Z,16.35
2023-04-17T01:55:35.691Z,16.60
2023-04-17T02:05:42.266Z,18.10
2023-04-17T02:15:48.853Z,18.10
2023-04-17T02:25:55.400Z,17.30
2023-04-17T02:36:01.895Z,17.50
2023-04-17T02:46:08.533Z,17.10
2023-04-17T02:56:15.042Z,18.30
2023-04-17T03:06:21.788Z,17.50
2023-04-17T03:16:28.342Z,19.10
2023-04-17T03:26:34.862Z,21.90
2023-04-17T03:36:41.591Z,27.30
2023-04-17T03:46:48.257Z,25.50
2023-04-17T03:56:54.748Z,35.40
2023-04-17T04:07:02.902Z,30.30
2023-04-17T04:17:09.435Z,32.40
2023-04-17T04:27:18.895Z,32.00
2023-04-17T04:37:31.199Z,28.40
2023-04-17T04:47:37.920Z,24.20
2023-04-17T04:57:44.465Z,24.00
2023-04-17T05:07:51.179Z,25.10
2023-04-17T05:17:57.669Z,24.80
2023-04-17T05:28:04.239Z,28.10
2023-04-17T05:38:10.810Z,29.40
2023-04-17T05:48:17.593Z,25.60
2023-04-17T05:58:24.716Z,27.10
2023-04-17T06:08:31.276Z,27.20
2023-04-17T06:18:37.763Z,27.20
2023-04-17T06:28:44.590Z,25.30
2023-04-17T06:38:51.228Z,26.60
2023-04-17T06:49:00.860Z,27.40
2023-04-17T06:59:07.448Z,27.40
2023-04-17T07:09:14.045Z,25.00
2023-04-17T07:19:21.034Z,24.00
2023-04-17T07:29:28.066Z,22.10
2023-04-17T07:39:34.668Z,23.90
2023-04-17T07:49:41.873Z,21.10
2023-04-17T07:59:48.532Z,19.30
2023-04-17T08:09:55.028Z,16.90
2023-04-17T08:20:03.536Z,24.50
2023-04-17T08:30:14.243Z,25.30
2023-04-17T08:40:24.594Z,22.40
2023-04-17T08:50:31.202Z,21.70
2023-04-17T09:00:39.182Z,19.80
2023-04-17T09:10:47.556Z,17.00
2023-04-17T09:20:54.473Z,21.30
2023-04-17T09:31:02.671Z,17.70
2023-04-17T09:41:24.109Z,15.40
2023-04-17T09:51:31.190Z,14.70
2023-04-17T10:01:39.084Z,11.70
2023-04-17T10:11:47.532Z,11.10
2023-04-17T10:22:29.692Z,11.40
2023-04-17T10:32:36.240Z,11.20
2023-04-17T10:42:42.900Z,10.60
2023-04-17T10:52:50.576Z,10.60
2023-04-17T11:02:57.174Z,8.60
2023-04-17T11:13:03.731Z,11.70
2023-04-17T11:23:11.071Z,14.20
2023-04-17T11:33:17.948Z,14.60
2023-04-17T11:43:25.368Z,13.60
2023-04-17T11:53:32.268Z,14.90
2023-04-17T12:03:39.042Z,13.50
2023-04-17T12:13:45.958Z,8.70
2023-04-17T12:23:52.863Z,7.50
2023-04-17T12:33:59.347Z,11.50
2023-04-17T12:44:05.919Z,14.20
2023-04-17T12:54:12.546Z,12.70
2023-04-17T13:04:20.180Z,13.80
2023-04-17T13:14:27.331Z,12.60
2023-04-17T13:24:34.254Z,16.50
2023-04-17T13:34:40.909Z,15.50
2023-04-17T13:44:47.508Z,15.50
2023-04-17T13:54:54.039Z,17.30
2023-04-17T14:05:00.746Z,19.50
2023-04-17T14:15:08.769Z,16.40
2023-04-17T14:25:18.482Z,15.40
2023-04-17T14:35:25.185Z,15.60
2023-04-17T14:45:32.266Z,19.20
2023-04-17T14:55:38.783Z,17.20
2023-04-17T15:05:46.873Z,14.70
2023-04-17T15:15:53.352Z,13.40
2023-04-17T15:25:59.971Z,12.00
2023-04-17T15:36:06.587Z,12.00
2023-04-17T15:46:13.470Z,12.40
2023-04-17T15:56:20.132Z,12.90
2023-04-17T16:06:27.322Z,13.50
2023-04-17T16:16:33.915Z,13.90
2023-04-17T16:26:40.480Z,10.40
2023-04-17T16:36:47.026Z,16.00
2023-04-17T16:47:11.973Z,15.50
2023-04-17T16:57:19.954Z,16.00
2023-04-17T17:07:26.463Z,12.20
2023-04-17T17:17:33.050Z,18.20
2023-04-17T17:27:39.962Z,20.70
2023-04-17T17:37:46.545Z,16.80
2023-04-17T17:47:53.143Z,15.50
2023-04-17T17:57:59.742Z,18.70
2023-04-17T18:08:06.231Z,11.70
2023-04-17T18:18:12.749Z,14.00
2023-04-17T18:28:19.222Z,14.50
2023-04-17T18:38:25.743Z,12.50
2023-04-17T18:48:32.236Z,15.50
2023-04-17T18:58:41.508Z,15.60
2023-04-17T19:08:48.000Z,11.50
2023-04-17T19:18:55.116Z,11.50
2023-04-17T19:29:01.224Z,11.55
2023-04-17T19:39:07.928Z,11.80
2023-04-17T19:49:14.609Z,12.40
2023-04-17T19:59:21.368Z,19.70
2023-04-17T20:09:27.804Z,11.10
2023-04-17T20:19:34.303Z,18.10
2023-04-17T20:29:40.766Z,13.90
2023-04-17T20:39:47.285Z,14.30
2023-04-17T20:49:53.739Z,10.10
2023-04-17T21:00:00.260Z,9.20
2023-04-17T21:10:07.262Z,8.80
2023-04-17T21:20:14.649Z,8.00
2023-04-17T21:30:21.204Z,8.30
2023-04-17T21:40:33.063Z,9.20
2023-04-17T21:50:42.551Z,7.90
2023-04-17T22:00:49.185Z,7.60
2023-04-17T22:10:55.716Z,9.40
2023-04-17T22:21:02.639Z,8.40
2023-04-17T22:31:09.115Z,8.20
2023-04-17T22:41:15.706Z,9.60
2023-04-17T22:51:22.301Z,7.40
2023-04-17T23:01:29.037Z,8.10
2023-04-17T23:11:35.607Z,7.40
2023-04-17T23:21:42.390Z,7.90
2023-04-17T23:31:48.891Z,6.80
2023-04-17T23:41:56.745Z,7.10
2023-04-17T23:52:03.660Z,6.40
